aviador You're here:

KM25 Decoded Metar

in
Report Time2017-03-25 17:35:00
UTC Time2017-03-25 17:24:57
Flight Rules mvfr MVFR
Wind160° at 14 Gusting to 21 kt
W.Rank160° ranks 8
Current wind is above 160° avg. (5.8)
Visibility9999 m
Phenomena:N/A
Clouds:Broken 026 Hf
Overcast 032 Hf
Expected CloudBase > 2,000 ft AGL from Temp-Dew spread
Ceiling2,600 ft
Temp18°C
Dew Point13°C (73% RH)
AAT13.9°C
QNH1015 hPa
Raw Report
KM25 251735Z AUTO 16014G21KT 10SM BKN026 OVC032 18/13 A2998 RMK
AO2=

Extra information for KM25:More info

Social comments